Time;durP1;ratioP1;P1;durP2;ratioP2;P2;SDS_P1;SDS_P2;PMS_P1;PMS_P2;Temp;Humidity;BMP_temperature;BMP_pressure;BME280_temperature;BME280_humidity;BME280_pressure;Samples;Min_cycle;Max_cycle;Signal;HPM_P1;HPM_P2
2023/01/17 00:01:22;;;;;;;19.67;10.07;;;2.50;99.90;2.00;97775;;;;539196;262;24241;-76
2023/01/17 00:12:07;;;;;;;22.17;10.90;;;2.70;99.90;2.10;97777;;;;546623;261;24235;-75
2023/01/17 00:14:35;;;;;;;13.27;6.07;;;2.70;99.90;2.10;97766;;;;546552;262;24219;-75
2023/01/17 00:17:03;;;;;;;15.67;8.57;;;2.70;99.90;2.10;97775;;;;541839;262;24288;-76
2023/01/17 01:35:35;;;;;;;16.53;9.27;;;2.90;99.90;2.30;97648;;;;546364;261;24178;-79
2023/01/17 01:38:03;;;;;;;18.73;8.70;;;2.90;99.90;2.30;97648;;;;541648;262;24218;-80
2023/01/17 01:40:31;;;;;;;19.10;8.63;;;2.90;99.90;2.40;97646;;;;538591;262;24207;-76
2023/01/17 01:42:59;;;;;;;16.83;9.10;;;2.90;99.90;2.40;97634;;;;541817;262;24194;-78
2023/01/17 01:45:27;;;;;;;18.23;10.67;;;2.90;99.90;2.40;97640;;;;541558;262;24185;-77
2023/01/17 01:48:02;;;;;;;17.10;10.23;;;2.90;99.90;2.30;97627;;;;538536;262;24184;-79
2023/01/17 01:50:33;;;;;;;13.30;7.83;;;2.90;99.90;2.40;97625;;;;538498;262;24205;-78
2023/01/17 01:52:58;;;;;;;12.87;7.87;;;2.90;99.90;2.40;97619;;;;542547;262;24184;-78
2023/01/17 01:55:25;;;;;;;15.47;9.20;;;3.00;99.90;2.40;97608;;;;539427;262;24216;-81
2023/01/17 01:57:57;;;;;;;11.33;6.60;;;3.00;99.90;2.40;97606;;;;538604;262;24192;-79
2023/01/17 02:00:28;;;;;;;14.83;7.17;;;3.00;99.90;2.40;97591;;;;542037;262;24174;-78
2023/01/17 02:02:55;;;;;;;14.20;7.77;;;3.00;99.90;2.30;97578;;;;545633;262;24199;-77
2023/01/17 02:05:26;;;;;;;11.67;7.10;;;2.90;99.90;2.40;97568;;;;541875;262;24239;-80
2023/01/17 02:08:06;;;;;;;14.67;9.27;;;2.90;99.90;2.30;97571;;;;541860;262;24244;-77
2023/01/17 02:10:33;;;;;;;16.03;7.50;;;2.90;99.90;2.30;97554;;;;538708;262;24188;-77
2023/01/17 02:13:01;;;;;;;14.97;8.60;;;2.90;99.90;2.30;97546;;;;538817;262;24176;-79
2023/01/17 02:15:39;;;;;;;10.87;6.10;;;2.90;99.90;2.30;97552;;;;538727;262;24199;-80
2023/01/17 02:18:40;;;;;;;16.77;10.07;;;2.80;99.90;2.20;97541;;;;538317;262;24187;-78
2023/01/17 02:21:35;;;;;;;17.57;9.50;;;2.80;99.90;2.20;97540;;;;539158;262;24188;-77
2023/01/17 02:24:24;;;;;;;12.47;7.00;;;2.80;99.90;2.20;97539;;;;535974;262;24180;-77
2023/01/17 02:27:07;;;;;;;14.87;8.67;;;2.80;99.90;2.20;97536;;;;535975;262;24178;-78
2023/01/17 02:29:55;;;;;;;12.80;8.00;;;2.80;99.90;2.10;97526;;;;538301;262;24243;-76
2023/01/17 02:32:35;;;;;;;14.30;6.63;;;2.70;99.90;2.10;97525;;;;538911;262;24165;-78
2023/01/17 02:35:09;;;;;;;12.43;7.53;;;2.70;99.90;2.10;97520;;;;541250;262;24182;-78
2023/01/17 02:37:52;;;;;;;7.53;4.20;;;2.70;99.90;2.10;97512;;;;540274;262;24345;-77
2023/01/17 02:40:20;;;;;;;13.87;7.23;;;2.60;99.90;2.00;97519;;;;541599;262;24206;-78
2023/01/17 02:42:51;;;;;;;14.77;8.13;;;2.60;99.90;2.00;97515;;;;538343;262;24215;-75
2023/01/17 02:45:19;;;;;;;15.40;7.80;;;2.60;99.90;2.00;97527;;;;538464;262;24196;-79
2023/01/17 02:47:47;;;;;;;9.03;5.40;;;2.60;99.90;2.00;97522;;;;540530;262;24261;-76
2023/01/17 02:50:18;;;;;;;17.53;8.40;;;2.60;99.90;2.00;97517;;;;541433;262;24169;-78
2023/01/17 02:53:23;;;;;;;10.87;7.27;;;2.60;99.90;2.00;97513;;;;538557;262;24217;-79
2023/01/17 02:55:56;;;;;;;23.45;14.25;;;2.60;99.90;2.00;97501;;;;541247;262;35791;-77
2023/01/17 02:58:36;;;;;;;21.63;10.97;;;2.60;99.90;2.00;97498;;;;538227;262;24184;-79
2023/01/17 03:01:29;;;;;;;10.90;4.33;;;2.60;99.90;2.10;97492;;;;541384;262;24225;-80
2023/01/17 03:03:56;;;;;;;9.20;6.03;;;2.70;99.90;2.10;97485;;;;540073;262;24208;-80
2023/01/17 03:06:26;;;;;;;6.87;4.57;;;2.60;99.90;2.00;97485;;;;539534;262;24183;-79
2023/01/17 03:08:54;;;;;;;10.60;7.07;;;2.60;99.90;2.00;97484;;;;539054;262;24190;-78
2023/01/17 03:11:22;;;;;;;12.57;7.07;;;2.60;99.90;2.00;97484;;;;542237;262;24197;-79
2023/01/17 03:13:59;;;;;;;14.83;8.37;;;2.60;99.90;2.00;97483;;;;546736;260;24180;-79
2023/01/17 03:16:24;;;;;;;13.50;8.20;;;2.60;99.90;2.00;97471;;;;541855;262;25269;-79
2023/01/17 03:18:55;;;;;;;24.73;14.45;;;2.50;99.90;2.00;97468;;;;534131;262;35776;-80
2023/01/17 03:21:20;;;;;;;15.40;9.30;;;2.50;99.90;2.00;97465;;;;541481;262;24211;-80
2023/01/17 03:23:48;;;;;;;16.93;8.93;;;2.60;99.90;2.00;97464;;;;541717;262;24201;-78
2023/01/17 03:26:16;;;;;;;6.63;4.20;;;2.60;99.90;2.00;97469;;;;541932;262;24204;-79
2023/01/17 03:28:44;;;;;;;10.90;7.10;;;2.60;99.90;2.00;97464;;;;546586;262;24166;-77
2023/01/17 03:31:18;;;;;;;15.17;8.27;;;2.60;99.90;2.00;97449;;;;546442;262;24236;-79
2023/01/17 03:33:42;;;;;;;11.70;6.80;;;2.60;99.90;2.00;97444;;;;538462;262;24165;-79
2023/01/17 03:36:11;;;;;;;12.30;7.90;;;2.60;99.90;2.00;97429;;;;538753;262;24165;-78
2023/01/17 03:38:39;;;;;;;12.93;7.80;;;2.60;99.90;2.00;97430;;;;541858;262;24228;-79
2023/01/17 03:41:07;;;;;;;7.30;4.97;;;2.60;99.90;2.10;97438;;;;541554;262;24205;-78
2023/01/17 03:43:36;;;;;;;6.00;3.80;;;2.60;99.90;2.00;97439;;;;540727;262;24204;-79
2023/01/17 03:46:06;;;;;;;8.87;5.27;;;2.60;99.90;2.00;97433;;;;541678;262;24173;-78
2023/01/17 03:48:34;;;;;;;7.73;5.30;;;2.60;99.90;2.00;97421;;;;538444;262;24189;-80
2023/01/17 03:51:02;;;;;;;10.60;6.57;;;2.60;99.90;2.00;97415;;;;535115;262;24210;-78
2023/01/17 03:53:30;;;;;;;12.37;6.57;;;2.60;99.90;2.00;97414;;;;541486;262;24205;-80
2023/01/17 03:55:58;;;;;;;5.50;3.97;;;2.60;99.90;2.00;97414;;;;541611;262;24197;-79
2023/01/17 03:58:26;;;;;;;9.10;6.10;;;2.60;99.90;2.00;97406;;;;541551;262;25230;-79
2023/01/17 04:00:54;;;;;;;10.60;6.00;;;2.60;99.90;2.00;97413;;;;541931;262;24192;-79
2023/01/17 04:03:22;;;;;;;9.83;6.63;;;2.60;99.90;2.00;97405;;;;541892;262;24264;-79
2023/01/17 04:05:50;;;;;;;3.40;3.10;;;2.60;99.90;2.00;97412;;;;541906;262;24191;-77
2023/01/17 04:08:18;;;;;;;10.40;5.63;;;2.60;99.90;2.00;97396;;;;541892;262;24207;-78
2023/01/17 04:10:46;;;;;;;8.40;4.73;;;2.60;99.90;2.00;97390;;;;541470;262;24183;-80
2023/01/17 04:13:15;;;;;;;15.07;9.43;;;2.60;99.90;2.00;97392;;;;536897;262;35739;-79
2023/01/17 04:15:45;;;;;;;12.60;8.27;;;2.60;99.90;2.00;97390;;;;542540;262;24149;-73
2023/01/17 04:18:13;;;;;;;8.30;6.43;;;2.60;99.90;2.00;97384;;;;542786;262;24175;-75
2023/01/17 04:20:45;;;;;;;7.77;6.03;;;2.70;99.90;2.10;97387;;;;539194;262;24196;-76
2023/01/17 04:23:12;;;;;;;4.90;3.90;;;2.60;99.90;2.10;97381;;;;547277;261;24228;-76
2023/01/17 04:25:37;;;;;;;10.30;6.50;;;2.70;99.90;2.10;97362;;;;541810;262;24247;-77
2023/01/17 04:28:05;;;;;;;9.47;7.00;;;2.70;99.90;2.00;97364;;;;541990;262;24187;-78
2023/01/17 04:30:33;;;;;;;14.47;5.40;;;2.70;99.90;2.00;97352;;;;542056;262;24203;-75
2023/01/17 04:33:05;;;;;;;9.53;6.27;;;2.60;99.90;2.00;97355;;;;538900;262;24173;-77
2023/01/17 04:35:32;;;;;;;7.67;4.73;;;2.60;99.90;2.00;97354;;;;538822;262;24478;-75
2023/01/17 04:37:57;;;;;;;11.23;6.33;;;2.60;99.90;2.00;97356;;;;538764;262;24162;-78
2023/01/17 04:40:28;;;;;;;10.20;6.20;;;2.60;99.90;2.00;97359;;;;542110;262;24230;-77
2023/01/17 04:42:53;;;;;;;9.93;6.67;;;2.60;99.90;2.00;97349;;;;546378;262;24189;-75
2023/01/17 04:45:21;;;;;;;13.07;5.00;;;2.70;99.90;2.00;97353;;;;542222;262;24178;-77
2023/01/17 04:47:49;;;;;;;4.93;3.13;;;2.60;99.90;2.10;97353;;;;542177;262;24184;-76
2023/01/17 04:50:20;;;;;;;13.90;7.80;;;2.70;99.90;2.10;97351;;;;542024;262;24195;-77
2023/01/17 04:52:45;;;;;;;7.10;5.20;;;2.60;99.90;2.00;97343;;;;541615;262;25253;-76
2023/01/17 04:55:14;;;;;;;6.30;3.27;;;2.70;99.90;2.00;97358;;;;541908;262;24213;-75
2023/01/17 04:57:41;;;;;;;4.33;3.90;;;2.70;99.90;2.10;97335;;;;541761;262;24242;-76
2023/01/17 05:00:13;;;;;;;11.03;5.47;;;2.70;99.90;2.10;97337;;;;541660;262;24212;-76
2023/01/17 05:02:37;;;;;;;7.57;4.33;;;2.70;99.90;2.10;97339;;;;541705;262;24257;-77
2023/01/17 05:05:06;;;;;;;7.67;5.23;;;2.60;99.90;2.10;97344;;;;541888;262;24248;-77
2023/01/17 05:07:33;;;;;;;7.73;5.70;;;2.70;99.90;2.10;97339;;;;538834;261;24178;-78
2023/01/17 05:10:01;;;;;;;6.33;5.13;;;2.70;99.90;2.10;97337;;;;541878;262;24205;-75
2023/01/17 05:12:29;;;;;;;8.03;6.17;;;2.70;99.90;2.10;97335;;;;541652;262;24201;-76
2023/01/17 05:14:56;;;;;;;6.90;5.47;;;2.70;99.90;2.10;97339;;;;541606;262;24150;-76
2023/01/17 05:17:28;;;;;;;11.27;5.90;;;2.70;99.90;2.10;97333;;;;541875;262;24208;-78
2023/01/17 05:19:52;;;;;;;3.57;3.27;;;2.70;99.90;2.10;97325;;;;540988;262;24227;-75
2023/01/17 05:22:20;;;;;;;3.83;3.53;;;2.70;99.90;2.10;97325;;;;541529;262;24162;-76
2023/01/17 05:24:48;;;;;;;6.20;4.23;;;2.70;99.90;2.10;97323;;;;541707;262;24202;-77
2023/01/17 05:27:16;;;;;;;6.53;4.17;;;2.70;99.90;2.10;97315;;;;542704;262;24180;-78
2023/01/17 05:29:44;;;;;;;5.70;3.07;;;2.70;99.90;2.10;97307;;;;542708;262;24223;-77
2023/01/17 05:32:12;;;;;;;11.30;6.40;;;2.70;99.90;2.10;97316;;;;542271;262;24169;-77
2023/01/17 05:34:41;;;;;;;5.27;4.03;;;2.70;99.90;2.10;97317;;;;542233;262;24191;-77
2023/01/17 05:37:08;;;;;;;10.17;6.97;;;2.70;99.90;2.10;97307;;;;542126;262;24229;-79
2023/01/17 05:39:36;;;;;;;9.67;6.63;;;2.70;99.90;2.10;97315;;;;542039;262;24184;-76
2023/01/17 05:42:07;;;;;;;7.77;5.37;;;2.70;99.90;2.20;97311;;;;542203;262;24199;-78
2023/01/17 05:44:32;;;;;;;8.33;6.77;;;2.70;99.90;2.20;97310;;;;546783;262;24241;-79
2023/01/17 05:47:01;;;;;;;7.50;5.47;;;2.80;99.90;2.20;97315;;;;542384;262;24231;-76
2023/01/17 05:49:29;;;;;;;6.93;5.20;;;2.80;99.90;2.20;97307;;;;541823;262;24211;-78
2023/01/17 05:51:57;;;;;;;6.13;4.37;;;2.80;99.90;2.20;97307;;;;541723;262;24169;-78
2023/01/17 05:54:24;;;;;;;8.77;6.10;;;2.80;99.90;2.10;97314;;;;541841;262;24201;-78
2023/01/17 05:56:52;;;;;;;6.73;5.13;;;2.80;99.90;2.20;97310;;;;541708;258;24174;-76
2023/01/17 05:59:20;;;;;;;9.73;6.57;;;2.80;99.90;2.20;97320;;;;542130;262;24260;-75
2023/01/17 06:01:48;;;;;;;10.67;6.73;;;2.80;99.90;2.20;97319;;;;541970;262;24227;-75
2023/01/17 06:04:17;;;;;;;13.05;9.45;;;2.80;99.90;2.20;97309;;;;536716;262;35824;-77
2023/01/17 06:06:45;;;;;;;12.53;8.17;;;2.80;99.90;2.20;97313;;;;541541;262;24239;-76
2023/01/17 06:09:13;;;;;;;9.67;7.23;;;2.80;99.90;2.20;97313;;;;541536;262;24169;-77
2023/01/17 06:11:41;;;;;;;11.47;6.03;;;2.80;99.90;2.20;97308;;;;538524;262;25228;-78
2023/01/17 06:14:09;;;;;;;9.07;5.83;;;2.80;99.90;2.20;97306;;;;541892;262;24195;-78
2023/01/17 06:16:36;;;;;;;5.77;4.93;;;2.80;99.90;2.10;97312;;;;538834;262;24179;-77
2023/01/17 06:19:04;;;;;;;4.70;3.27;;;2.70;99.90;2.10;97305;;;;541910;262;24209;-78
2023/01/17 06:21:32;;;;;;;7.90;6.53;;;2.70;99.90;2.00;97317;;;;541880;262;24180;-78
2023/01/17 06:24:00;;;;;;;5.60;3.93;;;2.70;99.90;2.00;97308;;;;541882;262;24222;-76
2023/01/17 06:26:28;;;;;;;7.97;5.53;;;2.60;99.90;2.00;97293;;;;541868;262;24212;-76
2023/01/17 06:28:56;;;;;;;8.67;6.77;;;2.70;99.90;2.00;97301;;;;541947;262;24228;-76
2023/01/17 06:31:24;;;;;;;7.20;6.03;;;2.60;99.90;2.00;97306;;;;541854;262;24251;-78
2023/01/17 06:33:52;;;;;;;6.03;5.40;;;2.60;99.90;2.00;97298;;;;538966;262;24244;-79
2023/01/17 06:36:23;;;;;;;4.07;3.67;;;2.60;99.90;2.00;97298;;;;541910;262;24203;-78
2023/01/17 06:38:50;;;;;;;6.80;5.30;;;2.60;99.90;2.00;97304;;;;542752;262;24179;-76
2023/01/17 06:41:19;;;;;;;7.03;5.60;;;2.60;99.90;2.00;97312;;;;539802;262;24176;-78
2023/01/17 06:43:51;;;;;;;7.73;6.07;;;2.60;99.90;2.00;97310;;;;542523;262;24176;-76
2023/01/17 06:46:16;;;;;;;6.47;5.80;;;2.60;99.90;2.00;97311;;;;552101;257;24184;-77
2023/01/17 06:48:43;;;;;;;11.83;7.97;;;2.60;99.90;2.00;97307;;;;542423;262;24208;-77
2023/01/17 06:51:11;;;;;;;7.83;4.63;;;2.60;99.90;2.00;97312;;;;542366;262;24193;-75
2023/01/17 06:53:39;;;;;;;4.53;3.53;;;2.60;99.90;2.00;97309;;;;542416;262;24173;-75
2023/01/17 06:56:07;;;;;;;8.97;6.90;;;2.60;99.90;2.10;97312;;;;542220;262;24227;-76
2023/01/17 06:58:35;;;;;;;11.60;7.93;;;2.60;99.90;2.10;97303;;;;540880;262;24186;-78
2023/01/17 07:01:08;;;;;;;8.73;6.33;;;2.70;99.90;2.10;97298;;;;546539;262;24165;-77
2023/01/17 07:03:37;;;;;;;8.47;7.03;;;2.70;99.90;2.00;97308;;;;539101;262;24176;-77
2023/01/17 07:06:08;;;;;;;7.70;6.83;;;2.70;99.90;2.10;97302;;;;542143;262;25201;-79
2023/01/17 07:08:32;;;;;;;7.77;6.43;;;2.70;99.90;2.10;97299;;;;539083;262;24189;-79
2023/01/17 07:11:00;;;;;;;13.93;9.40;;;2.60;99.90;2.10;97309;;;;535654;262;24204;-79
2023/01/17 07:13:28;;;;;;;15.50;9.43;;;2.70;99.90;2.10;97314;;;;542000;262;24206;-78
2023/01/17 07:15:56;;;;;;;8.07;4.90;;;2.70;99.90;2.20;97305;;;;546391;262;24250;-77
2023/01/17 07:18:24;;;;;;;12.87;7.67;;;2.70;99.90;2.20;97312;;;;540630;262;24211;-79
2023/01/17 07:20:52;;;;;;;10.87;7.97;;;2.70;99.90;2.20;97303;;;;541486;262;24192;-76
2023/01/17 07:23:20;;;;;;;9.17;8.07;;;2.80;99.90;2.20;97304;;;;538560;262;24205;-77
2023/01/17 07:25:56;;;;;;;13.77;9.00;;;2.80;99.90;2.20;97296;;;;538444;262;24257;-78
2023/01/17 07:28:24;;;;;;;10.73;7.77;;;2.80;99.90;2.30;97299;;;;538547;262;24173;-78
2023/01/17 07:30:52;;;;;;;9.40;5.47;;;2.80;99.90;2.30;97303;;;;540397;262;24224;-76
2023/01/17 07:33:20;;;;;;;16.77;10.07;;;2.80;99.90;2.30;97299;;;;546279;262;24169;-75
2023/01/17 07:35:48;;;;;;;8.27;6.17;;;2.90;99.90;2.30;97301;;;;540548;262;24188;-76
2023/01/17 07:38:16;;;;;;;15.20;9.47;;;2.90;99.90;2.30;97300;;;;541923;262;24220;-76
2023/01/17 07:40:46;;;;;;;12.63;7.70;;;2.90;99.90;2.40;97299;;;;538470;262;24178;-76
2023/01/17 07:43:15;;;;;;;10.73;7.33;;;2.90;99.90;2.40;97299;;;;541389;262;24176;-77
2023/01/17 07:45:46;;;;;;;16.20;9.83;;;2.90;99.90;2.40;97288;;;;541370;262;24345;-76
2023/01/17 07:48:14;;;;;;;11.43;7.67;;;3.00;99.90;2.40;97283;;;;541033;262;24231;-79
2023/01/17 07:50:39;;;;;;;15.83;9.70;;;3.00;99.90;2.40;97280;;;;542535;262;24220;-78
2023/01/17 07:53:07;;;;;;;17.63;10.67;;;3.00;99.90;2.50;97280;;;;542493;262;24388;-77
2023/01/17 07:55:35;;;;;;;13.70;8.40;;;3.10;99.90;2.50;97279;;;;542196;262;24214;-79
2023/01/17 07:58:03;;;;;;;11.90;7.77;;;3.10;99.90;2.50;97268;;;;542233;262;24230;-79
2023/01/17 08:00:31;;;;;;;20.03;8.80;;;3.10;99.90;2.50;97267;;;;542065;262;24203;-78
2023/01/17 08:03:02;;;;;;;15.63;9.70;;;3.10;99.90;2.60;97271;;;;542140;262;24222;-78
2023/01/17 08:05:30;;;;;;;13.90;7.63;;;3.10;99.90;2.60;97267;;;;539360;262;24192;-79
2023/01/17 08:07:54;;;;;;;12.43;8.63;;;3.20;99.90;2.70;97266;;;;538994;262;24209;-80
2023/01/17 08:10:22;;;;;;;15.40;9.80;;;3.20;99.90;2.70;97270;;;;542159;262;24205;-79
2023/01/17 08:12:54;;;;;;;13.60;8.73;;;3.30;99.90;2.70;97273;;;;539090;262;24168;-76
2023/01/17 08:15:18;;;;;;;17.80;10.47;;;3.30;99.90;2.70;97278;;;;539010;262;24227;-79
2023/01/17 08:17:51;;;;;;;13.93;9.07;;;3.30;99.90;2.80;97271;;;;546532;262;24193;-77
2023/01/17 08:20:18;;;;;;;16.90;11.53;;;3.40;99.90;2.80;97280;;;;541744;262;24215;-76
2023/01/17 08:22:48;;;;;;;17.07;10.37;;;3.40;99.90;2.90;97277;;;;538672;262;24212;-77
2023/01/17 08:25:13;;;;;;;12.10;8.87;;;3.40;99.90;2.90;97273;;;;538514;262;24226;-79
2023/01/17 08:27:41;;;;;;;19.47;10.87;;;3.50;99.90;3.00;97287;;;;541539;262;24188;-80
2023/01/17 08:30:09;;;;;;;13.07;9.47;;;3.50;99.90;2.90;97280;;;;541533;262;24169;-80
2023/01/17 08:32:39;;;;;;;13.00;9.17;;;3.50;99.90;3.00;97278;;;;538632;262;24220;-79
2023/01/17 08:35:05;;;;;;;15.97;10.43;;;3.50;99.90;3.00;97282;;;;538489;262;24205;-79
2023/01/17 08:37:33;;;;;;;15.23;9.37;;;3.60;99.90;3.00;97289;;;;535824;262;24188;-77
2023/01/17 08:40:02;;;;;;;17.47;10.00;;;3.60;99.90;3.00;97281;;;;541521;262;26453;-76
2023/01/17 08:42:29;;;;;;;14.43;9.80;;;3.60;99.90;3.00;97278;;;;541375;262;24174;-78
2023/01/17 08:44:57;;;;;;;14.10;9.03;;;3.60;99.90;3.00;97277;;;;541560;262;24207;-79
2023/01/17 08:47:26;;;;;;;18.90;11.57;;;3.60;99.90;3.00;97281;;;;541449;262;24231;-78
2023/01/17 08:49:53;;;;;;;17.03;11.17;;;3.60;99.90;3.10;97284;;;;541606;262;24192;-78
2023/01/17 08:52:21;;;;;;;11.80;8.40;;;3.70;99.90;3.10;97277;;;;541579;262;24166;-79
2023/01/17 08:54:48;;;;;;;12.03;8.60;;;3.70;99.90;3.10;97267;;;;541943;262;24218;-80
2023/01/17 08:57:16;;;;;;;17.17;10.10;;;3.60;99.90;3.10;97287;;;;541611;262;24186;-79
2023/01/17 08:59:44;;;;;;;12.97;9.73;;;3.60;99.90;3.10;97292;;;;541543;262;24237;-78
2023/01/17 09:02:15;;;;;;;18.77;11.47;;;3.60;99.90;3.10;97284;;;;543024;262;24172;-78
2023/01/17 09:04:46;;;;;;;14.40;9.77;;;3.60;99.90;3.10;97287;;;;542485;262;24170;-80
2023/01/17 09:07:15;;;;;;;14.50;9.37;;;3.70;99.90;3.20;97277;;;;539558;262;24250;-80
2023/01/17 09:09:43;;;;;;;13.53;9.00;;;3.70;99.90;3.10;97285;;;;539446;262;24179;-81
2023/01/17 09:12:10;;;;;;;15.50;10.13;;;3.70;99.90;3.20;97288;;;;542365;262;24166;-79
2023/01/17 09:14:38;;;;;;;14.73;10.30;;;3.80;99.90;3.20;97299;;;;542399;262;24213;-79
2023/01/17 09:17:06;;;;;;;16.10;10.67;;;3.80;99.90;3.30;97296;;;;542325;262;24181;-77
2023/01/17 09:19:38;;;;;;;17.00;10.97;;;3.80;99.90;3.30;97297;;;;541884;262;24273;-78
2023/01/17 09:22:02;;;;;;;18.17;9.67;;;3.80;99.90;3.30;97304;;;;541450;262;24184;-77
2023/01/17 09:24:31;;;;;;;19.83;11.37;;;3.90;99.90;3.30;97297;;;;538854;262;24211;-76
2023/01/17 09:26:58;;;;;;;17.00;11.00;;;3.90;99.90;3.40;97288;;;;541763;262;24203;-78
2023/01/17 09:29:26;;;;;;;15.73;10.13;;;3.90;99.90;3.40;97293;;;;541667;262;28414;-80
2023/01/17 09:31:54;;;;;;;13.43;9.23;;;3.90;99.90;3.40;97286;;;;541822;262;24186;-76
2023/01/17 09:34:23;;;;;;;17.57;11.67;;;4.00;99.90;3.40;97294;;;;541693;262;24175;-75
2023/01/17 09:36:53;;;;;;;17.50;11.00;;;4.00;99.90;3.50;97289;;;;541779;262;24229;-77
2023/01/17 09:39:17;;;;;;;20.47;11.93;;;4.00;99.90;3.50;97289;;;;541452;262;24236;-78
2023/01/17 09:41:52;;;;;;;16.60;10.63;;;4.10;99.90;3.50;97294;;;;541884;262;24231;-80
2023/01/17 09:44:52;;;;;;;11.53;8.10;;;4.10;99.90;3.50;97298;;;;538200;262;24189;-76
2023/01/17 09:47:32;;;;;;;22.53;11.27;;;4.10;99.90;3.70;97295;;;;536223;262;24181;-78
2023/01/17 09:50:03;;;;;;;15.67;10.20;;;4.20;99.90;3.70;97295;;;;536015;262;24201;-76
2023/01/17 09:52:30;;;;;;;19.93;10.70;;;4.20;99.90;3.70;97290;;;;538130;262;24199;-76
2023/01/17 09:55:02;;;;;;;15.23;10.57;;;4.30;99.90;3.70;97297;;;;538431;262;24232;-77
2023/01/17 09:58:01;;;;;;;17.80;10.93;;;4.30;99.90;3.80;97297;;;;541473;262;24185;-77
2023/01/17 10:00:52;;;;;;;14.03;10.07;;;4.40;99.90;3.80;97306;;;;536074;262;24201;-77
2023/01/17 10:03:27;;;;;;;19.03;10.73;;;4.40;99.90;3.90;97296;;;;538785;262;24173;-76
2023/01/17 10:06:16;;;;;;;13.70;9.33;;;4.40;99.90;3.90;97299;;;;541732;262;24282;-78
2023/01/17 10:09:09;;;;;;;19.90;12.63;;;4.50;99.90;3.90;97298;;;;538868;262;24216;-76
2023/01/17 10:11:48;;;;;;;15.97;9.63;;;4.40;99.90;3.90;97297;;;;541453;262;24209;-76
2023/01/17 10:14:34;;;;;;;18.47;8.70;;;4.50;99.90;3.90;97295;;;;537082;262;24228;-76
2023/01/17 10:17:29;;;;;;;19.73;11.43;;;4.50;99.90;4.00;97299;;;;539652;262;24217;-76
2023/01/17 10:20:09;;;;;;;15.63;9.73;;;4.50;99.90;3.90;97296;;;;539541;262;24228;-76
2023/01/17 10:22:55;;;;;;;17.03;10.23;;;4.60;99.90;4.00;97296;;;;546859;262;24324;-74
2023/01/17 10:25:31;;;;;;;16.93;12.13;;;4.60;99.90;4.00;97309;;;;538726;262;24218;-76
2023/01/17 10:28:01;;;;;;;20.17;12.30;;;4.60;99.90;4.10;97311;;;;541947;262;24158;-76
2023/01/17 10:30:30;;;;;;;21.33;12.47;;;4.60;99.90;4.00;97301;;;;540821;262;24268;-75
2023/01/17 10:32:58;;;;;;;18.23;13.00;;;4.70;99.90;4.10;97308;;;;541693;262;24182;-75
2023/01/17 10:35:26;;;;;;;18.90;12.03;;;4.70;99.90;4.10;97302;;;;539041;262;24234;-75
2023/01/17 10:37:57;;;;;;;20.40;11.73;;;4.70;99.90;4.20;97299;;;;538927;262;24191;-79
2023/01/17 10:40:44;;;;;;;20.13;12.07;;;4.80;99.90;4.20;97304;;;;539001;262;24272;-77
2023/01/17 10:43:30;;;;;;;16.10;9.63;;;4.80;99.90;4.20;97306;;;;538862;262;24188;-75
2023/01/17 10:46:01;;;;;;;17.37;10.70;;;4.80;99.90;4.30;97305;;;;536032;262;24172;-75
2023/01/17 10:48:43;;;;;;;18.23;10.70;;;4.80;99.90;4.30;97309;;;;541921;262;24247;-76
2023/01/17 10:51:11;;;;;;;21.48;18.05;;;4.90;99.90;4.40;97308;;;;534061;262;35790;-76
2023/01/17 10:54:01;;;;;;;19.90;16.35;;;5.00;99.90;4.40;97310;;;;534210;261;35858;-76
2023/01/17 10:56:33;;;;;;;18.47;11.73;;;5.00;99.90;4.50;97318;;;;535875;262;24174;-76
2023/01/17 10:59:33;;;;;;;16.53;10.97;;;5.10;99.90;4.50;97306;;;;541078;262;24220;-77
2023/01/17 11:01:58;;;;;;;17.50;11.67;;;5.10;99.90;4.50;97315;;;;538427;262;24184;-75
2023/01/17 11:04:37;;;;;;;15.40;10.63;;;5.10;99.90;4.50;97315;;;;540596;262;24224;-77
2023/01/17 11:07:14;;;;;;;11.93;9.67;;;5.00;99.90;4.40;97300;;;;538827;262;24212;-76
2023/01/17 11:09:48;;;;;;;13.53;10.00;;;5.10;99.90;4.50;97306;;;;538802;262;25203;-76
2023/01/17 11:12:40;;;;;;;12.83;9.60;;;5.10;99.90;4.50;97295;;;;538793;262;24179;-79
2023/01/17 11:15:11;;;;;;;13.53;9.17;;;5.10;99.90;4.60;97298;;;;538620;262;24183;-78
2023/01/17 11:17:44;;;;;;;17.67;11.83;;;5.20;99.90;4.70;97300;;;;538886;262;24184;-77
2023/01/17 11:20:22;;;;;;;15.47;10.20;;;5.30;99.90;4.80;97294;;;;537362;262;24204;-78
2023/01/17 11:23:02;;;;;;;20.40;11.40;;;5.30;99.90;4.80;97296;;;;538203;262;24228;-80
2023/01/17 11:25:29;;;;;;;15.93;11.20;;;5.40;99.90;4.90;97294;;;;542809;262;24179;-79
2023/01/17 11:27:58;;;;;;;13.83;10.10;;;5.50;99.90;5.00;97291;;;;539910;262;24194;-79
2023/01/17 11:30:28;;;;;;;15.17;10.53;;;5.60;99.90;5.00;97274;;;;539381;262;24210;-80
2023/01/17 11:33:07;;;;;;;13.63;8.53;;;5.60;99.90;5.20;97277;;;;542233;262;24190;-77
2023/01/17 11:35:37;;;;;;;17.77;11.27;;;5.80;99.90;5.20;97279;;;;536486;262;24200;-78
2023/01/17 11:38:03;;;;;;;12.87;9.93;;;5.80;99.90;5.20;97277;;;;541836;262;24183;-77
2023/01/17 11:40:39;;;;;;;14.50;9.57;;;5.80;99.90;5.30;97276;;;;539140;262;25230;-77
2023/01/17 11:43:14;;;;;;;15.63;11.30;;;5.90;99.90;5.20;97284;;;;538942;262;24187;-79
2023/01/17 11:45:41;;;;;;;17.23;10.37;;;5.80;99.90;5.20;97290;;;;538988;262;24208;-79
2023/01/17 11:48:12;;;;;;;10.77;8.50;;;5.80;99.90;5.10;97279;;;;546666;260;24185;-77
2023/01/17 11:50:55;;;;;;;13.40;9.67;;;5.80;99.90;5.20;97280;;;;539011;261;24177;-76
2023/01/17 11:53:29;;;;;;;17.03;11.03;;;5.80;99.90;5.20;97278;;;;538877;262;24184;-76
2023/01/17 11:56:09;;;;;;;13.33;9.27;;;5.80;99.90;5.20;97277;;;;538926;262;24236;-77
2023/01/17 11:58:40;;;;;;;17.33;9.87;;;5.80;99.90;5.20;97270;;;;545630;258;24190;-80
2023/01/17 12:01:32;;;;;;;17.23;10.43;;;5.80;99.90;5.20;97274;;;;541770;262;24177;-77
2023/01/17 12:04:12;;;;;;;13.13;8.23;;;5.80;99.90;5.20;97270;;;;541160;262;24173;-81
2023/01/17 12:06:48;;;;;;;11.60;8.57;;;5.80;99.90;5.20;97276;;;;540939;262;24231;-79
2023/01/17 12:09:21;;;;;;;16.27;11.23;;;5.80;99.90;5.10;97270;;;;548801;261;24259;-79
2023/01/17 12:13:59;;;;;;;9.50;7.40;;;5.70;99.90;5.10;97271;;;;545949;262;24271;-78
2023/01/17 12:14:22;;;;;;;13.10;9.37;;;5.70;99.90;5.00;97288;;;;538827;262;24189;-78
2023/01/17 12:17:01;;;;;;;13.27;9.00;;;5.60;99.90;5.00;97278;;;;538759;262;24188;-78
2023/01/17 12:19:36;;;;;;;12.63;8.00;;;5.60;99.90;5.00;97286;;;;538683;262;24180;-79
2023/01/17 12:22:24;;;;;;;14.20;8.90;;;5.50;99.90;4.90;97297;;;;540783;262;24199;-79
2023/01/17 12:25:07;;;;;;;14.37;8.70;;;5.50;99.90;4.80;97291;;;;541168;262;24168;-80
2023/01/17 12:28:12;;;;;;;17.83;8.43;;;5.40;99.90;4.80;97286;;;;546473;262;24195;-79
2023/01/17 12:31:13;;;;;;;10.87;7.07;;;5.30;99.90;4.80;97294;;;;535980;262;24173;-77
2023/01/17 12:33:56;;;;;;;13.07;8.40;;;5.30;99.90;4.80;97295;;;;538717;262;24210;-74
2023/01/17 12:36:39;;;;;;;16.23;7.97;;;5.30;99.90;4.70;97294;;;;539972;262;24194;-79
2023/01/17 12:39:10;;;;;;;16.87;8.77;;;5.30;99.90;4.70;97287;;;;536881;262;25230;-78
2023/01/17 12:41:56;;;;;;;11.37;7.83;;;5.30;99.90;4.70;97297;;;;539355;262;24181;-75
2023/01/17 12:44:33;;;;;;;8.50;4.97;;;5.30;99.90;4.70;97293;;;;542253;262;24171;-78
2023/01/17 12:47:01;;;;;;;11.83;8.00;;;5.30;99.90;4.70;97301;;;;529510;262;24167;-75
2023/01/17 12:49:57;;;;;;;8.97;6.60;;;5.30;99.90;4.70;97295;;;;538973;262;24193;-76
2023/01/17 12:52:39;;;;;;;11.37;8.10;;;5.30;99.90;4.70;97312;;;;541129;262;24173;-74
2023/01/17 12:55:07;;;;;;;10.47;7.23;;;5.30;99.90;4.70;97316;;;;538966;262;24182;-76
2023/01/17 12:57:41;;;;;;;11.07;7.77;;;5.30;99.90;4.80;97314;;;;538668;262;24190;-75
2023/01/17 13:00:20;;;;;;;11.23;7.00;;;5.30;99.90;4.80;97318;;;;539226;262;24181;-77
2023/01/17 13:03:29;;;;;;;8.83;6.90;;;5.30;99.90;4.90;97322;;;;529203;262;24186;-76
2023/01/17 13:05:57;;;;;;;9.60;6.57;;;5.40;99.90;5.00;97317;;;;539289;262;24173;-80
2023/01/17 13:08:37;;;;;;;10.50;5.93;;;5.50;99.90;5.00;97323;;;;541200;262;24180;-75
2023/01/17 13:11:19;;;;;;;10.17;5.90;;;5.50;99.90;5.00;97331;;;;539082;262;24221;-79